Terminal Aerodrome Forecast
Issued by NWS

Home | Current Version | Previous Version | Text Only | Print | Product List | Glossary Off
Versions: 1 2 3 4 5 6 7 8 9 10 11 12 13 14 15

000
FTUS43 KABR 151100
TAFATY
TAF
KATY 151123Z 1512/1612 15012KT P6SM SKC
     FM151500 16020G30KT P6SM SCT250
     FM160000 16013KT P6SM OVC050
     FM160800 VRB05KT P6SM OVC050=

USA.gov is the U.S. government's official web portal to all federal, state and local government web resources and services.